Impacts METAR Board
IDs:

KSEA - Seattle-Tacoma Intl, WA, US

Updated at: 2200 UTC 14 Aug 2018
Potential Impact None Slight Moderate High
Time 14/10Z 14/11Z 14/12Z 14/13Z 14/14Z 14/15Z 14/16Z 14/17Z 14/18Z 14/19Z 14/20Z 14/21Z 14/22Z
Temp65 64 62 63 62 65 68 72 75 76 78 81 82
Dewpt57 57 57 58 58 59 60 60 60 60 60 60 60
Altim29.97 29.97 29.96 29.96 29.96 29.97 29.97 29.96 29.96 29.94 29.93 29.91 29.89
VIS6 6 6 4 3 3 3 3 3 3 3 3 3
CIG44 46 45 -- 50 -- -- -- -- -- -- -- --
CoverBKNBKNBKNSCTBKNSCTSCTSCTSCTSCTSCTSCTFEW
FltCatVFRVFRVFRMVFRMVFRMVFRMVFRMVFRMVFRMVFRMVFRMVFRMVFR
WXHZ FUHZ FUHZ FUHZ FUBR FUHZ FUHZ FUHZ FUHZ FUHZ FUHZ FUHZ FUHZ FU
WDir3602035040036030500280280290300
WSpd6 4 7 6 0 4 3 4 5 5 8 6 8
WGst-- -- -- -- -- -- -- -- -- -- -- -- --
Raw hourly METARs
KSEA 140953Z 36006KT 6SM HZ FU BKN044 18/14 A2997 RMK AO2 SLP153 FU BKN044 T01830139
KSEA 141053Z 02004KT 6SM HZ FU BKN046 18/14 A2997 RMK AO2 SLP150 FU BKN046 T01780139
KSEA 141153Z 35007KT 6SM HZ FU BKN045 17/14 A2996 RMK AO2 SLP149 FU BKN045 T01670139 10206 20167 58005
KSEA 141253Z 04006KT 4SM HZ FU SCT050 17/14 A2996 RMK AO2 SLP149 FU SCT050 T01720144
KSEA 141353Z 00000KT 3SM BR FU BKN050 17/14 A2996 RMK AO2 SLP150 FU SCT050 T01670144
KSEA 141453Z 36004KT 3SM HZ FU SCT050 18/15 A2997 RMK AO2 SLP153 FU SCT050 T01830150 53004
KSEA 141553Z 03003KT 3SM HZ FU SCT050 20/16 A2997 RMK AO2 SLP153 FU SCT050 T02000156
KSEA 141653Z 05004KT 3SM HZ FU SCT050 22/16 A2996 RMK AO2 SLP149 FU SCT050 T02220156
KSEA 141753Z VRB05KT 3SM HZ FU SCT050 24/16 A2996 RMK AO2 SLP147 FU SCT050 T02390156 10239 20167 58005
KSEA 141853Z 28005KT 3SM HZ FU SCT036 24/16 A2994 RMK AO2 SLP143 FU SCT036 T02440156
KSEA 141953Z 28008KT 3SM HZ FU SCT037 26/16 A2993 RMK AO2 SLP138 FU SCT037 T02560156
KSEA 142053Z 29006KT 3SM HZ FU SCT037 27/16 A2991 RMK AO2 SLP133 FU SCT037 T02720156 58014
KSEA 142153Z 30008KT 3SM HZ FU FEW038 28/16 A2989 RMK AO2 SLP126 FU FEW038 T02780156



Page loaded:  22:04 UTC  |   03:04 PM Pacific  |   04:04 PM Mountain  |   05:04 PM Central  |   06:04 PM Eastern

 

ADVISORIES

FORECASTS

FORECASTS

OBSERVATIONS

USER TOOLS

ABOUT US